Time;durP1;ratioP1;P1;durP2;ratioP2;P2;SDS_P1;SDS_P2;PMS_P1;PMS_P2;Temp;Humidity;BMP_temperature;BMP_pressure;BME280_temperature;BME280_humidity;BME280_pressure;Samples;Min_cycle;Max_cycle;Signal;HPM_P1;HPM_P2
2021/10/27 00:00:12;;;;;;;9.50;7.20;;;9.50;73.30;;;8.67;59.67;95795.88;5073706;28;20202;-87
2021/10/27 00:02:39;;;;;;;14.27;8.18;;;9.40;73.50;;;8.68;60.04;95805.38;5057312;28;20681;-87
2021/10/27 00:05:07;;;;;;;10.85;8.25;;;9.40;73.20;;;8.63;59.68;95811.91;5040673;28;20195;-87
2021/10/27 00:07:34;;;;;;;9.65;7.05;;;9.40;73.30;;;8.58;60.39;95795.88;5059487;28;20230;-87
2021/10/27 00:10:02;;;;;;;10.73;7.68;;;9.40;73.30;;;8.58;60.06;95800.25;5073307;28;20244;-86
2021/10/27 00:12:29;;;;;;;9.45;7.38;;;9.30;73.30;;;8.55;60.22;95803.22;5073199;28;20231;-87
2021/10/27 00:14:57;;;;;;;12.48;7.30;;;9.30;73.30;;;8.50;60.13;95793.22;5086041;28;20641;-87
2021/10/27 00:17:24;;;;;;;9.35;7.15;;;9.30;73.20;;;8.48;60.01;95796.00;5056405;28;20256;-87
2021/10/27 00:19:51;;;;;;;7.32;6.10;;;9.20;73.10;;;8.43;59.42;95795.59;5056640;28;20254;-87
2021/10/27 00:22:19;;;;;;;8.57;6.35;;;9.20;73.10;;;8.36;59.58;95792.00;5056647;28;20696;-87
2021/10/27 00:24:46;;;;;;;11.68;6.63;;;9.20;72.90;;;8.30;59.82;95796.03;5057252;28;20224;-87
2021/10/27 00:27:13;;;;;;;10.68;6.72;;;9.10;73.00;;;8.25;59.86;95793.06;5076241;28;20226;-87
2021/10/27 00:29:41;;;;;;;10.23;7.45;;;9.10;73.10;;;8.20;60.03;95795.31;5059245;28;20289;-87
2021/10/27 00:32:09;;;;;;;7.90;6.57;;;9.10;73.10;;;8.16;60.12;95797.41;5060002;28;20307;-88
2021/10/27 00:34:36;;;;;;;8.95;6.70;;;9.00;73.20;;;8.07;60.42;95794.91;5072713;28;20215;-87
2021/10/27 00:37:03;;;;;;;9.18;6.53;;;9.10;74.20;;;8.04;59.85;95790.81;5072797;28;20262;-86
2021/10/27 00:39:32;;;;;;;8.75;6.72;;;8.90;73.20;;;8.03;60.32;95797.00;5073137;28;20187;-87
2021/10/27 00:41:59;;;;;;;8.90;7.07;;;8.80;73.20;;;8.01;60.29;95797.16;5073017;28;20299;-87
2021/10/27 00:44:27;;;;;;;8.75;6.70;;;8.80;73.40;;;7.98;60.42;95794.03;5062744;28;20637;-86
2021/10/27 00:47:10;;;;;;;9.60;6.72;;;8.80;73.50;;;7.97;60.30;95787.16;5056233;28;20238;-87
2021/10/27 00:49:40;;;;;;;9.60;6.45;;;8.80;74.00;;;7.96;60.64;95790.78;5056243;28;20206;-88
2021/10/27 00:52:11;;;;;;;8.77;6.38;;;8.80;73.80;;;7.92;60.45;95776.38;5057337;28;20242;-87
2021/10/27 00:54:42;;;;;;;10.68;7.15;;;8.70;73.80;;;7.96;60.84;95785.56;5056416;28;20203;-87
2021/10/27 00:57:12;;;;;;;8.50;6.20;;;8.70;73.90;;;7.96;61.08;95783.75;5057277;28;20219;-87
2021/10/27 00:59:42;;;;;;;8.70;6.35;;;8.70;74.10;;;7.99;60.80;95785.22;5061116;28;20290;-87
2021/10/27 01:02:11;;;;;;;8.52;6.55;;;8.70;74.00;;;7.98;60.63;95775.75;5039827;28;20356;-86
2021/10/27 01:04:40;;;;;;;10.27;6.88;;;8.70;74.10;;;7.97;61.06;95777.56;5056364;28;20551;-87
2021/10/27 01:07:09;;;;;;;10.93;6.95;;;8.70;74.20;;;7.97;61.59;95784.56;5056234;28;20230;-88
2021/10/27 01:09:37;;;;;;;8.07;6.35;;;8.70;74.40;;;7.93;60.96;95768.38;5072495;28;20199;-88
2021/10/27 01:12:06;;;;;;;8.07;6.68;;;8.70;74.60;;;7.92;61.48;95769.38;5072318;28;20298;-88
2021/10/27 01:14:34;;;;;;;8.15;5.93;;;8.70;74.60;;;8.01;61.25;95771.03;5072721;28;20194;-87
2021/10/27 01:17:07;;;;;;;9.25;6.70;;;8.70;74.70;;;8.04;61.43;95771.72;5040385;28;20261;-88
2021/10/27 01:19:57;;;;;;;9.00;6.50;;;8.70;75.00;;;8.06;61.14;95777.63;5056097;28;20226;-87
2021/10/27 01:22:36;;;;;;;9.07;6.45;;;8.70;75.00;;;8.04;61.74;95776.94;5056046;28;20269;-86
2021/10/27 01:25:06;;;;;;;8.88;6.82;;;8.70;75.00;;;8.11;62.26;95776.16;5048903;28;20234;-87
2021/10/27 01:27:43;;;;;;;12.43;7.07;;;8.70;75.00;;;8.16;62.27;95775.69;5075704;28;20222;-87
2021/10/27 01:30:20;;;;;;;8.45;6.40;;;8.80;75.00;;;8.19;62.02;95772.78;5075990;28;20190;-87
2021/10/27 01:32:50;;;;;;;10.55;6.47;;;8.80;75.00;;;8.25;61.61;95774.78;5058954;28;20222;-87
2021/10/27 01:35:18;;;;;;;9.15;5.97;;;8.80;75.00;;;8.27;61.61;95780.66;5084727;28;20278;-88
2021/10/27 01:37:46;;;;;;;8.60;6.00;;;8.90;75.00;;;8.28;61.80;95784.91;5055668;28;20580;-88
2021/10/27 01:40:19;;;;;;;9.82;6.80;;;8.90;75.00;;;8.29;61.72;95785.75;5074437;28;20270;-86
2021/10/27 01:42:49;;;;;;;10.70;6.88;;;8.90;75.00;;;8.26;61.70;95781.63;5060631;28;20225;-87
2021/10/27 01:45:17;;;;;;;8.70;6.65;;;8.90;75.00;;;8.27;61.59;95787.69;5079445;28;20310;-87
2021/10/27 01:47:46;;;;;;;9.75;6.93;;;8.90;75.00;;;8.19;61.32;95770.19;5078447;28;20737;-86
2021/10/27 01:50:15;;;;;;;7.45;6.18;;;8.90;75.00;;;8.18;61.06;95785.03;5085473;28;21454;-87
2021/10/27 01:52:43;;;;;;;9.55;6.28;;;8.90;75.00;;;8.22;61.15;95795.19;5088217;28;20233;-87
2021/10/27 01:55:10;;;;;;;9.40;5.90;;;8.90;74.90;;;8.17;60.86;95786.00;5075324;28;20663;-87
2021/10/27 01:57:37;;;;;;;11.45;6.15;;;8.90;74.70;;;8.14;61.29;95788.94;5074391;28;20226;-87
2021/10/27 02:00:07;;;;;;;9.75;5.95;;;8.80;75.50;;;8.11;61.52;95791.03;5058901;28;20244;-86
2021/10/27 02:02:41;;;;;;;8.82;6.13;;;8.80;75.00;;;8.10;61.20;95792.81;5059441;28;20222;-87
2021/10/27 02:05:09;;;;;;;7.30;5.18;;;8.80;74.80;;;8.09;61.04;95796.41;5066105;28;20199;-87
2021/10/27 02:07:36;;;;;;;6.63;5.40;;;8.80;74.90;;;8.05;61.09;95799.50;5081332;28;20231;-87
2021/10/27 02:10:07;;;;;;;6.90;5.57;;;8.80;75.00;;;8.05;61.37;95802.91;5080642;28;20210;-87
2021/10/27 02:12:36;;;;;;;7.72;6.22;;;8.80;75.00;;;8.05;61.52;95805.53;5086692;28;20233;-87
2021/10/27 02:15:05;;;;;;;6.60;5.32;;;8.80;75.00;;;7.99;61.67;95808.75;5100788;28;20236;-87
2021/10/27 02:17:32;;;;;;;6.68;5.32;;;8.80;75.00;;;7.96;61.19;95809.06;5086507;28;20267;-86
2021/10/27 02:19:59;;;;;;;5.95;4.15;;;8.70;74.80;;;7.96;60.83;95820.31;5086952;28;20190;-86
2021/10/27 02:22:27;;;;;;;8.45;5.18;;;8.70;74.80;;;7.96;61.54;95816.91;5077824;28;20646;-87
2021/10/27 02:24:54;;;;;;;7.78;5.50;;;8.70;75.00;;;7.95;61.98;95821.28;5056702;28;20309;-87
2021/10/27 02:27:22;;;;;;;6.82;5.32;;;8.70;75.00;;;7.96;61.74;95814.28;5075832;28;20707;-87
2021/10/27 02:29:49;;;;;;;8.15;5.20;;;8.70;75.00;;;7.95;61.82;95816.06;5075533;28;20230;-88
2021/10/27 02:32:16;;;;;;;9.68;5.45;;;8.70;75.00;;;7.97;61.75;95815.91;5059023;28;20277;-87
2021/10/27 02:34:43;;;;;;;6.32;4.85;;;8.60;74.90;;;7.95;61.47;95820.50;5090481;28;20194;-88
2021/10/27 02:37:11;;;;;;;6.85;5.32;;;8.70;75.00;;;7.91;61.11;95814.75;5073911;28;20206;-87
2021/10/27 02:39:38;;;;;;;7.70;5.60;;;8.60;75.60;;;7.86;61.63;95814.38;5090405;28;20194;-88
2021/10/27 02:42:07;;;;;;;7.60;5.30;;;8.60;74.90;;;7.88;61.66;95817.66;5055175;28;20390;-88
2021/10/27 02:44:35;;;;;;;6.38;5.40;;;8.60;74.90;;;7.85;61.27;95821.38;5055158;28;20223;-88
2021/10/27 02:47:04;;;;;;;9.20;5.25;;;8.60;74.90;;;7.85;61.59;95815.34;5072940;28;20261;-87
2021/10/27 02:49:32;;;;;;;7.38;5.47;;;8.70;75.00;;;7.85;61.55;95820.59;5076976;28;20191;-88
2021/10/27 02:51:59;;;;;;;8.00;5.47;;;8.60;74.90;;;7.84;61.90;95811.09;5059078;28;20223;-88
2021/10/27 02:54:26;;;;;;;9.55;6.38;;;8.50;74.80;;;7.81;62.53;95821.84;5077221;28;20217;-87
2021/10/27 02:56:53;;;;;;;7.88;6.65;;;8.50;74.80;;;7.84;62.08;95819.75;5090221;28;20255;-87
2021/10/27 02:59:20;;;;;;;7.97;6.10;;;8.50;74.80;;;7.88;61.80;95824.69;5091729;28;20191;-87
2021/10/27 03:01:48;;;;;;;7.43;5.20;;;8.50;74.80;;;7.89;61.40;95828.94;5075699;28;20215;-88
2021/10/27 03:04:15;;;;;;;9.20;6.60;;;8.50;74.80;;;7.87;62.20;95828.25;5062414;28;20186;-88
2021/10/27 03:06:42;;;;;;;9.45;6.35;;;8.50;74.90;;;7.89;62.00;95827.13;5077944;28;20608;-88
2021/10/27 03:09:10;;;;;;;8.43;6.43;;;8.50;75.00;;;7.91;61.62;95826.97;5078416;28;20274;-88
2021/10/27 03:11:37;;;;;;;9.43;6.22;;;8.50;75.10;;;7.89;61.82;95831.53;5094661;28;20252;-88
2021/10/27 03:14:04;;;;;;;8.23;6.43;;;8.50;75.10;;;7.94;62.06;95824.06;5077578;28;20206;-87
2021/10/27 03:16:32;;;;;;;8.98;7.10;;;8.50;75.10;;;7.90;62.32;95817.50;5046975;28;20281;-88
2021/10/27 03:18:59;;;;;;;8.80;6.65;;;8.60;75.30;;;7.95;62.31;95828.31;5074329;28;20227;-88
2021/10/27 03:21:27;;;;;;;9.48;7.20;;;8.60;75.30;;;7.98;62.08;95826.22;5074635;28;20710;-87
2021/10/27 03:23:54;;;;;;;9.23;6.60;;;8.60;75.40;;;7.99;61.84;95827.84;5079692;28;20199;-87
2021/10/27 03:26:21;;;;;;;10.55;6.80;;;8.60;75.30;;;7.96;62.02;95824.75;5058875;28;20362;-87
2021/10/27 03:28:49;;;;;;;10.63;6.50;;;8.70;75.30;;;7.97;61.87;95823.75;5077829;28;20659;-87
2021/10/27 03:31:16;;;;;;;8.70;6.07;;;8.60;75.10;;;7.93;62.01;95815.38;5060730;28;20309;-87
2021/10/27 03:33:43;;;;;;;7.15;6.05;;;8.60;74.90;;;7.91;61.77;95825.19;5061035;28;20223;-87
2021/10/27 03:36:11;;;;;;;8.57;6.47;;;8.60;74.90;;;7.87;61.63;95825.66;5073640;28;20227;-87
2021/10/27 03:38:38;;;;;;;9.07;6.63;;;8.60;74.90;;;7.83;61.71;95825.94;5041127;28;20202;-88
2021/10/27 03:41:06;;;;;;;8.48;6.97;;;8.50;74.80;;;7.79;61.98;95823.81;5074235;28;20219;-87
2021/10/27 03:43:33;;;;;;;10.95;7.05;;;8.50;75.00;;;7.81;62.15;95840.97;5073718;28;20199;-88
2021/10/27 03:46:00;;;;;;;12.02;7.57;;;8.60;75.40;;;7.82;62.25;95841.75;5055547;28;20646;-87
2021/10/27 03:48:27;;;;;;;10.40;7.75;;;8.50;75.40;;;7.83;62.16;95839.00;5057240;28;20211;-87
2021/10/27 03:50:55;;;;;;;9.63;7.60;;;8.50;75.50;;;7.84;62.75;95835.41;5057371;28;20207;-87
2021/10/27 03:53:22;;;;;;;9.95;6.68;;;8.60;75.60;;;7.86;62.25;95835.28;5057076;28;20213;-88
2021/10/27 03:55:50;;;;;;;9.43;6.70;;;8.50;75.60;;;7.85;62.04;95839.66;5057437;28;20223;-87
2021/10/27 03:58:17;;;;;;;13.02;7.40;;;8.50;75.50;;;7.83;62.09;95838.19;5078028;28;20241;-86
2021/10/27 04:00:44;;;;;;;11.70;7.55;;;8.50;75.50;;;7.83;62.72;95840.81;5069612;28;20218;-87
2021/10/27 04:03:12;;;;;;;10.90;7.07;;;8.50;75.50;;;7.76;62.42;95839.75;5057506;28;20191;-87
2021/10/27 04:05:39;;;;;;;11.80;7.95;;;8.50;75.50;;;7.78;62.36;95848.28;5073690;28;20225;-87
2021/10/27 04:08:06;;;;;;;9.45;6.53;;;8.50;75.50;;;7.78;62.49;95848.28;5092929;28;20232;-87
2021/10/27 04:10:34;;;;;;;10.30;7.22;;;8.50;75.50;;;7.75;62.29;95845.94;5077358;28;20663;-87
2021/10/27 04:13:02;;;;;;;11.38;8.23;;;8.50;75.50;;;7.73;62.53;95842.69;5077467;28;20215;-88
2021/10/27 04:15:29;;;;;;;11.82;8.07;;;8.50;75.60;;;7.73;63.16;95840.88;5077097;28;20195;-87
2021/10/27 04:17:56;;;;;;;10.70;8.20;;;8.40;75.70;;;7.76;62.86;95845.78;5058684;28;20276;-88
2021/10/27 04:20:24;;;;;;;10.85;8.40;;;8.40;75.80;;;7.81;63.22;95843.56;5084806;28;20565;-87
2021/10/27 04:22:51;;;;;;;12.77;8.55;;;8.50;76.10;;;7.82;63.20;95837.38;5057065;28;20699;-87
2021/10/27 04:25:19;;;;;;;13.63;8.77;;;8.40;76.20;;;7.88;63.17;95837.75;5060030;28;20294;-87
2021/10/27 04:27:46;;;;;;;11.48;7.97;;;8.60;76.40;;;7.96;62.93;95832.56;5076480;28;20219;-87
2021/10/27 04:30:13;;;;;;;11.70;9.13;;;8.60;76.50;;;8.06;63.33;95845.53;5076656;28;20233;-88
2021/10/27 04:32:43;;;;;;;10.88;8.00;;;8.60;76.70;;;8.14;63.14;95835.97;5076402;28;20218;-87
2021/10/27 04:35:11;;;;;;;11.45;9.15;;;8.60;76.80;;;8.20;63.37;95834.50;5076793;28;20221;-88
2021/10/27 04:37:40;;;;;;;11.85;8.05;;;8.70;76.80;;;8.25;63.07;95842.72;5070438;28;20306;-87
2021/10/27 04:40:11;;;;;;;10.35;7.85;;;8.70;76.60;;;8.28;62.95;95841.59;5059419;28;20240;-88
2021/10/27 04:42:38;;;;;;;9.55;6.72;;;8.70;76.50;;;8.26;62.26;95833.88;5073568;28;20226;-88
2021/10/27 04:45:07;;;;;;;8.48;7.15;;;8.80;76.20;;;8.22;62.33;95835.19;5068469;28;20210;-87
2021/10/27 04:47:36;;;;;;;10.02;7.22;;;8.80;76.10;;;8.17;62.05;95832.22;5074404;28;20222;-88
2021/10/27 04:50:06;;;;;;;7.43;6.38;;;8.80;75.80;;;8.08;61.87;95833.13;5074358;28;20194;-87
2021/10/27 04:52:33;;;;;;;9.68;6.65;;;8.80;75.70;;;8.06;61.96;95845.53;5074418;28;20236;-87
2021/10/27 04:55:00;;;;;;;11.60;7.43;;;8.70;75.40;;;8.00;61.91;95844.34;5056180;28;20206;-89
2021/10/27 04:57:27;;;;;;;9.60;6.88;;;8.70;75.40;;;7.95;62.26;95847.41;5074847;28;20226;-88
2021/10/27 04:59:54;;;;;;;13.80;10.13;;;8.70;75.50;;;7.97;61.86;95857.69;5075751;28;20289;-87
2021/10/27 05:02:21;;;;;;;11.60;9.13;;;8.70;75.60;;;7.95;62.16;95851.84;5091274;28;20759;-87
2021/10/27 05:04:48;;;;;;;9.50;7.72;;;8.60;75.60;;;7.93;62.17;95854.56;5060312;28;20203;-88
2021/10/27 05:07:16;;;;;;;13.95;10.05;;;8.60;75.60;;;7.86;61.81;95840.50;5055376;28;20229;-87
2021/10/27 05:09:47;;;;;;;10.02;8.45;;;8.60;75.70;;;7.93;62.00;95844.13;5068099;28;20263;-86
2021/10/27 05:12:14;;;;;;;12.35;8.70;;;8.60;75.90;;;7.89;62.03;95839.38;5074646;28;20210;-85
2021/10/27 05:14:41;;;;;;;8.75;7.60;;;8.60;75.90;;;7.92;62.22;95852.97;5074382;28;20290;-84
2021/10/27 05:17:12;;;;;;;11.32;8.23;;;8.60;75.90;;;7.91;62.08;95850.47;5072244;28;20770;-85
2021/10/27 05:19:42;;;;;;;12.02;8.95;;;8.60;76.00;;;7.91;62.25;95853.09;5072381;28;20257;-85
2021/10/27 05:22:11;;;;;;;13.20;8.70;;;8.60;76.00;;;7.91;62.14;95851.31;5072194;28;20223;-85
2021/10/27 05:24:40;;;;;;;10.38;8.45;;;8.50;76.00;;;7.89;62.56;95857.66;5055513;28;20187;-85
2021/10/27 05:27:08;;;;;;;14.57;8.77;;;8.50;76.10;;;7.90;62.25;95851.44;5082909;28;20241;-84
2021/10/27 05:29:36;;;;;;;11.52;8.43;;;8.60;76.10;;;7.92;62.26;95863.41;5055773;28;20703;-85
2021/10/27 05:32:09;;;;;;;13.00;8.13;;;8.50;76.00;;;7.92;62.20;95866.03;5055507;28;20230;-85
2021/10/27 05:34:39;;;;;;;12.85;8.90;;;8.50;76.00;;;7.92;62.12;95870.41;5056260;28;20219;-85
2021/10/27 05:37:06;;;;;;;10.15;7.55;;;8.50;76.00;;;7.93;62.64;95874.66;5071991;28;20216;-85
2021/10/27 05:39:33;;;;;;;11.95;8.02;;;8.50;76.10;;;7.94;62.35;95871.09;5055703;28;20241;-85
2021/10/27 05:42:03;;;;;;;13.88;9.55;;;8.60;76.10;;;7.95;62.68;95865.69;5072074;28;20213;-85
2021/10/27 05:44:30;;;;;;;27.80;19.17;;;8.50;76.30;;;8.01;62.75;95875.53;5074111;28;20277;-85
2021/10/27 05:46:57;;;;;;;23.92;17.70;;;8.60;76.50;;;8.06;62.77;95877.72;5055485;28;20230;-85
2021/10/27 05:49:31;;;;;;;22.45;15.13;;;8.60;76.70;;;8.16;62.78;95877.63;5060867;28;20669;-85
2021/10/27 05:52:05;;;;;;;28.73;19.77;;;8.60;76.70;;;8.27;62.84;95876.53;5072239;28;20266;-85
2021/10/27 05:57:18;;;;;;;31.25;21.00;;;8.70;77.00;;;8.48;62.55;95886.66;5081240;28;20287;-86
2021/10/27 05:59:47;;;;;;;22.50;15.57;;;8.80;77.10;;;8.58;62.51;95895.25;5092088;28;20198;-85
2021/10/27 06:02:14;;;;;;;20.35;13.98;;;8.90;77.20;;;8.72;62.52;95901.69;5107344;28;20214;-84
2021/10/27 06:04:42;;;;;;;18.23;13.35;;;9.00;77.30;;;8.83;62.53;95910.25;5056139;28;20191;-83
2021/10/27 06:07:09;;;;;;;18.02;12.70;;;9.00;77.30;;;8.93;62.62;95909.13;5071297;28;20282;-85
2021/10/27 06:09:38;;;;;;;14.02;11.05;;;9.10;77.30;;;9.05;62.56;95906.25;5093667;28;20304;-85
2021/10/27 06:12:09;;;;;;;14.60;10.15;;;9.20;77.30;;;9.15;62.45;95914.78;5077177;28;20584;-85
2021/10/27 06:14:36;;;;;;;13.13;10.27;;;9.30;77.30;;;9.19;62.80;95892.56;5073603;28;20409;-85
2021/10/27 06:17:03;;;;;;;16.00;10.77;;;9.40;77.30;;;9.33;62.46;95901.59;5053064;28;20223;-85
2021/10/27 06:19:30;;;;;;;15.55;10.63;;;9.60;77.40;;;9.45;62.71;95909.97;5052910;28;20249;-84
2021/10/27 06:21:57;;;;;;;13.98;10.18;;;9.60;77.30;;;9.55;62.61;95912.47;5069188;28;20265;-86
2021/10/27 06:24:25;;;;;;;14.07;11.23;;;9.70;77.40;;;9.64;62.83;95901.00;5069975;28;20246;-85
2021/10/27 06:26:52;;;;;;;12.18;9.95;;;9.80;77.40;;;9.77;62.43;95905.78;5053477;28;20211;-85
2021/10/27 06:29:28;;;;;;;15.57;10.80;;;9.90;77.40;;;9.90;62.63;95906.13;5055864;28;20561;-85
2021/10/27 06:32:08;;;;;;;15.48;10.30;;;10.00;76.20;;;10.00;62.35;95899.91;5074475;28;20207;-85
2021/10/27 06:34:41;;;;;;;12.38;9.60;;;10.10;76.20;;;10.17;62.21;95904.16;5060873;28;20652;-84
2021/10/27 06:37:33;;;;;;;13.57;9.85;;;10.20;76.20;;;10.35;62.15;95906.59;5075007;28;20468;-85
2021/10/27 06:48:18;;;;;;;15.25;10.82;;;10.80;75.80;;;10.73;61.21;95906.09;5093702;28;20242;-84
2021/10/27 06:51:05;;;;;;;15.10;10.02;;;10.90;75.30;;;10.75;61.16;95916.41;5066969;28;20213;-85
2021/10/27 06:53:33;;;;;;;14.90;9.48;;;11.00;75.30;;;10.71;60.65;95916.72;5075835;28;20251;-85
2021/10/27 06:56:00;;;;;;;14.82;9.75;;;11.00;75.30;;;10.69;60.87;95918.72;5057853;28;20245;-85
2021/10/27 06:58:31;;;;;;;20.27;14.18;;;11.00;75.20;;;10.69;60.87;95915.25;5058071;28;20688;-86
2021/10/27 07:01:00;;;;;;;18.30;11.60;;;11.10;75.10;;;10.68;60.95;95914.44;5058014;28;20348;-86
2021/10/27 07:17:00;;;;;;;13.68;9.07;;;11.10;75.00;;;10.96;60.69;95918.47;5079682;28;20218;-84
2021/10/27 07:19:27;;;;;;;14.65;10.02;;;11.20;75.20;;;10.99;60.62;95908.44;5077215;28;20202;-86
2021/10/27 07:21:55;;;;;;;12.38;9.73;;;11.30;76.10;;;11.09;60.65;95912.69;5075956;28;20295;-84
2021/10/27 07:24:23;;;;;;;14.30;10.13;;;11.30;75.30;;;11.14;60.59;95910.38;5076496;28;20300;-85
2021/10/27 07:26:51;;;;;;;13.38;9.77;;;11.40;76.00;;;11.23;60.68;95917.22;5075592;28;20233;-83
2021/10/27 07:29:19;;;;;;;12.13;9.57;;;11.40;75.20;;;11.29;60.55;95910.47;5059689;28;20230;-87
2021/10/27 07:31:49;;;;;;;14.43;11.13;;;11.40;75.00;;;11.34;60.36;95895.84;5074018;28;20206;-84
2021/10/27 07:34:17;;;;;;;17.73;10.85;;;11.50;75.00;;;11.42;60.30;95910.72;5062097;28;20195;-84
2021/10/27 07:41:58;;;;;;;10.95;8.70;;;11.70;75.00;;;11.70;60.03;95910.25;5088208;28;20324;-85
2021/10/27 07:44:26;;;;;;;13.95;10.13;;;11.80;75.00;;;11.80;59.94;95913.47;5080878;28;20645;-84
2021/10/27 07:46:54;;;;;;;20.55;13.02;;;11.90;75.10;;;11.92;60.12;95919.13;5091249;28;20216;-84
2021/10/27 07:49:23;;;;;;;15.90;11.75;;;11.90;75.10;;;12.01;59.70;95914.66;5083973;28;20237;-85
2021/10/27 07:51:52;;;;;;;22.48;15.05;;;12.00;75.00;;;12.13;59.60;95912.44;5077934;28;20269;-84
2021/10/27 07:54:19;;;;;;;29.77;19.55;;;12.10;75.00;;;12.21;59.55;95903.69;5073415;28;20480;-84
2021/10/27 07:56:47;;;;;;;20.45;15.23;;;12.20;75.00;;;12.33;59.44;95907.53;5098927;28;20729;-86
2021/10/27 07:59:15;;;;;;;17.33;13.27;;;12.30;75.00;;;12.40;59.52;95905.81;5086059;28;20217;-85
2021/10/27 08:01:43;;;;;;;15.23;10.43;;;12.40;75.00;;;12.56;59.13;95919.78;5071544;28;20900;-86
2021/10/27 08:04:11;;;;;;;13.43;9.95;;;12.50;74.80;;;12.64;58.81;95914.47;5062304;28;20264;-86
2021/10/27 08:06:40;;;;;;;13.07;10.13;;;12.50;74.70;;;12.72;58.89;95910.91;5083492;28;20205;-88
2021/10/27 08:09:07;;;;;;;14.10;10.50;;;12.70;74.70;;;12.80;58.48;95914.31;5082605;28;20216;-85
2021/10/27 08:11:34;;;;;;;15.88;11.73;;;12.70;75.20;;;12.94;58.64;95917.13;5086491;28;20416;-85
2021/10/27 08:14:01;;;;;;;12.00;8.75;;;12.80;74.30;;;13.00;58.41;95911.13;5064740;28;20262;-86
2021/10/27 08:16:29;;;;;;;11.45;9.25;;;12.90;74.30;;;13.14;58.65;95917.38;5065083;28;20209;-86
2021/10/27 08:18:58;;;;;;;15.73;10.40;;;13.00;74.20;;;13.20;57.53;95914.00;5068059;28;20190;-86
2021/10/27 08:21:26;;;;;;;13.13;9.90;;;13.20;73.90;;;13.29;57.45;95917.34;5074543;28;20267;-86
2021/10/27 08:23:55;;;;;;;16.13;11.88;;;13.20;73.70;;;13.34;57.85;95915.00;5087957;28;20194;-88
2021/10/27 08:26:25;;;;;;;17.25;12.43;;;13.30;73.60;;;13.43;57.33;95913.09;5067866;28;20222;-88
2021/10/27 08:28:57;;;;;;;12.30;9.48;;;13.40;73.40;;;13.47;57.41;95903.81;5104461;28;20201;-87
2021/10/27 08:36:24;;;;;;;11.23;8.95;;;13.60;73.80;;;13.84;57.53;95923.09;5072404;28;20218;-88
2021/10/27 08:38:56;;;;;;;12.57;9.00;;;13.70;73.60;;;13.97;57.23;95914.47;5075655;28;20629;-88
2021/10/27 08:41:44;;;;;;;11.20;8.27;;;13.80;73.50;;;14.05;57.14;95922.28;5064742;28;20237;-88
2021/10/27 08:44:11;;;;;;;11.07;8.82;;;13.90;73.40;;;14.16;56.83;95925.41;5073308;28;20197;-88
2021/10/27 08:46:41;;;;;;;9.95;8.27;;;14.00;73.40;;;14.30;56.55;95935.06;5060066;28;20218;-88
2021/10/27 08:49:08;;;;;;;14.25;9.27;;;14.10;73.00;;;14.40;56.63;95926.84;5073852;28;20764;-85
2021/10/27 08:51:36;;;;;;;11.35;8.95;;;14.20;73.10;;;14.50;55.93;95924.69;5073780;28;20235;-84
2021/10/27 08:54:07;;;;;;;9.90;7.55;;;14.30;72.70;;;14.60;56.21;95921.72;5074306;28;20221;-84
2021/10/27 08:56:42;;;;;;;11.32;8.30;;;14.40;73.00;;;14.74;55.93;95922.66;5056173;28;20209;-85
2021/10/27 08:59:32;;;;;;;13.95;9.45;;;14.50;72.70;;;14.85;55.88;95927.38;5055798;28;20250;-85
2021/10/27 09:02:31;;;;;;;10.80;8.15;;;14.60;72.60;;;14.91;55.23;95925.81;5089463;28;20734;-84
2021/10/27 10:04:03;;;;;;;5.93;4.53;;;16.10;69.90;;;16.18;53.32;95925.50;5004113;28;20246;-86
2021/10/27 10:04:43;;;;;;;6.40;4.47;;;16.10;71.00;;;16.24;53.06;95927.34;5098540;28;20284;-84
2021/10/27 10:07:14;;;;;;;5.97;4.95;;;16.10;70.00;;;16.29;53.10;95924.09;5095740;28;20210;-85
2021/10/27 10:09:43;;;;;;;7.18;4.65;;;16.20;69.80;;;16.33;53.28;95928.78;5060762;28;20250;-85
2021/10/27 10:12:10;;;;;;;7.85;4.25;;;16.30;69.90;;;16.32;51.93;95926.34;5058880;28;20734;-86
2021/10/27 10:14:39;;;;;;;5.88;4.80;;;16.30;69.00;;;16.32;50.42;95923.69;5051783;28;20543;-85
2021/10/27 10:17:07;;;;;;;8.02;6.35;;;16.30;68.70;;;16.27;50.88;95919.00;5058768;28;20303;-86
2021/10/27 10:19:38;;;;;;;5.07;3.92;;;16.30;68.20;;;16.25;51.53;95913.09;5092154;28;20228;-85
2021/10/27 10:22:27;;;;;;;5.38;4.00;;;16.30;68.50;;;16.32;51.93;95918.41;5045735;28;20268;-85
2021/10/27 10:25:20;;;;;;;9.02;6.25;;;16.30;68.60;;;16.32;51.03;95911.25;5069420;28;20195;-85
2021/10/27 10:27:51;;;;;;;6.25;3.72;;;16.40;68.10;;;16.41;50.80;95913.72;5070753;28;20633;-86
2021/10/27 10:30:42;;;;;;;5.05;3.70;;;16.40;68.40;;;16.47;51.40;95907.59;5077986;28;20206;-85
2021/10/27 10:33:12;;;;;;;4.50;3.50;;;16.40;68.10;;;16.55;51.53;95909.22;5062221;28;20205;-85
2021/10/27 10:41:58;;;;;;;6.05;4.00;;;16.60;68.00;;;16.73;50.79;95908.59;5078352;28;20271;-85
2021/10/27 11:27:36;;;;;;;5.65;4.00;;;17.80;67.40;;;18.28;50.65;95853.84;5076620;28;20266;-87
2021/10/27 11:41:56;;;;;;;3.17;2.88;;;18.70;67.70;;;19.50;49.35;95839.06;5076411;28;20695;-88
2021/10/27 11:44:46;;;;;;;5.22;3.05;;;19.00;67.30;;;19.75;49.26;95830.16;5065892;28;20190;-87
2021/10/27 11:47:15;;;;;;;3.72;3.42;;;19.20;66.70;;;19.94;48.55;95820.25;5046633;28;20223;-88
2021/10/27 11:49:54;;;;;;;4.65;3.30;;;19.40;67.00;;;20.16;48.29;95830.38;5072172;28;20330;-87
2021/10/27 11:52:37;;;;;;;4.35;3.30;;;19.70;66.00;;;20.30;47.64;95821.13;5061614;28;20283;-87
2021/10/27 11:55:07;;;;;;;4.50;3.30;;;19.90;65.80;;;20.41;46.64;95816.00;5075790;28;20315;-86
2021/10/27 11:57:41;;;;;;;3.70;3.20;;;20.00;65.20;;;20.46;46.24;95818.81;5076334;28;20213;-86
2021/10/27 12:00:24;;;;;;;4.65;3.13;;;20.10;64.40;;;20.51;45.91;95808.25;5059338;28;20244;-88
2021/10/27 12:03:01;;;;;;;5.88;2.75;;;20.30;64.10;;;20.59;45.68;95812.41;5090130;28;20229;-87
2021/10/27 12:05:40;;;;;;;3.65;3.13;;;20.30;63.80;;;20.69;45.51;95810.00;5074062;28;20193;-87
2021/10/27 12:08:58;;;;;;;4.47;2.92;;;20.50;63.90;;;20.85;45.86;95807.66;5063038;28;20407;-87
2021/10/27 12:19:16;;;;;;;4.20;2.53;;;21.00;63.70;;;21.69;45.26;95796.50;5091979;28;20230;-86
2021/10/27 12:22:22;;;;;;;3.08;2.47;;;21.20;63.80;;;21.95;45.35;95796.13;5076120;28;20221;-84
2021/10/27 12:25:01;;;;;;;4.05;2.53;;;21.40;64.60;;;22.28;44.69;95791.84;5054130;28;20287;-86
2021/10/27 12:30:04;;;;;;;3.95;2.80;;;22.00;64.10;;;22.69;44.22;95784.41;5083713;28;20699;-85
2021/10/27 12:32:33;;;;;;;4.82;2.40;;;22.10;63.60;;;22.89;44.21;95788.41;5074827;28;20726;-86
2021/10/27 12:35:09;;;;;;;3.95;2.65;;;22.30;63.50;;;23.09;43.71;95777.97;5075311;28;20204;-86
2021/10/27 12:37:41;;;;;;;2.55;2.13;;;22.60;62.70;;;23.28;43.42;95780.34;5091166;28;20229;-85
2021/10/27 12:43:12;;;;;;;2.33;2.10;;;23.00;63.20;;;23.63;43.09;95781.75;5092106;28;20253;-85
2021/10/27 12:45:46;;;;;;;2.72;1.92;;;23.20;62.30;;;23.79;42.81;95774.66;5073590;28;20198;-85
2021/10/27 12:48:36;;;;;;;2.40;2.05;;;23.40;61.90;;;23.91;42.33;95775.34;5080384;28;20610;-85
2021/10/27 12:51:11;;;;;;;3.80;2.67;;;23.60;61.50;;;23.93;41.12;95775.91;5102626;28;20691;-86
2021/10/27 12:53:45;;;;;;;2.97;2.33;;;23.70;60.60;;;23.95;41.50;95768.41;5083523;28;20708;-85
2021/10/27 12:56:30;;;;;;;3.75;2.78;;;23.80;61.00;;;24.01;40.78;95771.97;5082018;28;20216;-86
2021/10/27 12:59:05;;;;;;;2.53;2.13;;;24.00;60.10;;;24.04;40.99;95771.44;5082288;28;20572;-85
2021/10/27 13:10:07;;;;;;;4.65;2.55;;;24.40;60.20;;;24.35;40.84;95752.06;5078167;28;20680;-85
2021/10/27 13:12:28;;;;;;;2.38;2.00;;;24.50;60.20;;;24.41;41.29;95753.72;5092301;28;20234;-85
2021/10/27 13:20:45;;;;;;;2.65;2.38;;;24.80;59.60;;;24.75;40.43;95746.16;5076541;28;20219;-85
2021/10/27 13:31:47;;;;;;;3.25;2.35;;;25.70;59.40;;;25.56;39.34;95740.50;5105709;28;20213;-86
2021/10/27 13:34:15;;;;;;;4.45;2.60;;;25.90;59.30;;;25.57;38.42;95737.56;5082279;28;20534;-86
2021/10/27 13:36:42;;;;;;;2.85;2.40;;;26.00;56.90;;;25.61;38.79;95737.84;5084989;28;20250;-86
2021/10/27 13:39:09;;;;;;;2.85;2.38;;;26.20;56.90;;;25.62;38.73;95736.78;5086002;28;20205;-87
2021/10/27 13:41:37;;;;;;;2.63;2.00;;;26.30;56.70;;;25.72;38.73;95734.06;5086600;28;20215;-87
2021/10/27 13:44:11;;;;;;;2.90;2.50;;;26.50;56.80;;;25.84;39.13;95731.13;5067051;28;20653;-87